Cross City, FL

2:51 AM EDT on July 25, 2014 (GMT -0400)
Hatchbend on the Suwannee (KFLBRANF5) Elev 20 ft | 29.82 °N, 82.92 °W | Change Station

Current weather conditions updated 11 minutes ago

Clear
Clear
74.4 °F
Feels Like 71 °F
N
0.0
Wind Variable Wind from East
Gusts 0.0 mph

Today is forecast to be nearly the same temperature as yesterday. Scattered thunderstorms.

Today
High -- | Low -- °F
--% Chance of Precip.
Yesterday
High -- | Low -- °F
Precip. -- in
6:47 AM 8:29 PM
Waning Crescent, 3% visible
Pressure 30.01 in
Visibility 10.0 miles
Clouds Clear
Heat Index 71 °F
Dew Point 74 °F
Humidity 97%
Rainfall 0.00 in
Snow Depth Not available.
UV 0 out of 12
Pollen 3.60 out of 12
Air Quality Not available.
Flu Activity Not available.
METAR K40J 250635Z AUTO 00000KT 10SM CLR 24/23 A3001 RMK AO2

More Conditions Fewer Conditions

Pressure 30.01 in
Visibility 10.0 miles
Clouds Clear
Heat Index 71 °F
Dew Point 74 °F
Humidity 97%
Rainfall 0.00 in
Snow Depth Not available.
UV 0 out of 12
Pollen 3.60 out of 12
Air Quality Not available.
Flu Activity Not available.
METAR K40J 250635Z AUTO 00000KT 10SM CLR 24/23 A3001 RMK AO2

More Conditions Fewer Conditions

10-Day Weather Forecast

Almanac

Astronomy

Jul. 25, 2014 Rise Set
Actual Time 6:47 AM EDT 8:29 PM EDT
Civil Twilight 6:21 AM EDT 8:55 PM EDT
Nautical Twilight 5:50 AM EDT 9:27 PM EDT
Astronomical Twilight 5:17 AM EDT 10:00 PM EDT
Moon 5:43 AM EDT 7:29 PM EDT
Length of Visible Light 14h 33m
Length of Day
13h 41m
Tomorrow will be 1m 10s shorter.
Waning Crescent, 3% of the Moon is Illuminated
Today
Waning Crescent
Jul 26
New
Aug 3
First Quarter
Aug 10
Full
Aug 17
Last Quarter

Today's Extremes

State Highs State Lows

Community

WunderPhotos

Upload Photos

1,737,265 photos uploaded!

Nearby

Snow Depth

Station Depth Elevation
No new snow has been reported.

Earthquake Activity

City Distance Mag. Time & Date
No recent earthquake activity has been reported nearby.
Minimum magnitude displayed is 2.5.

Coastal Water Temperatures

Place Temperature
No Stations Reporting

Nearby Weather Stations

Station Location Temp. Heat Index Dew Point Humidity Wind Precip. Elev Updated Type
Hatchbend on the Suwannee, Branford, FL 74.4 °F 71 °F 74 °F 97% East  at  0.0 mph 0.00 in / hr 20 ft 2:39 AM EDT Rapid Fire
Horseshoe Beach, Horseshoe Beach, FL 83.4 °F 92 °F 76 °F 78% SW  at  1.4 mph 0.00 in / hr 10 ft 2:51 AM EDT Rapid Fire
RAWS LOWER SUWANNEE FL, Suwannee, FL 75 °F 73 °F 73 °F 94% North  at  0 mph 0.00 in / hr 15 ft 1:47 AM EDT MADIS
Gilchrist County, .Trenton, FL 74.8 °F 73 °F 73 °F 93% West  at  0.0 mph 0.00 in / hr 86 ft 2:51 AM EDT Rapid Fire

Show More Stations Show Fewer Stations